Time;durP1;ratioP1;P1;durP2;ratioP2;P2;SDS_P1;SDS_P2;PMS_P1;PMS_P2;Temp;Humidity;BMP_temperature;BMP_pressure;BME280_temperature;BME280_humidity;BME280_pressure;Samples;Min_cycle;Max_cycle;Signal;HPM_P1;HPM_P2
2022/04/23 00:01:20;;;;;;;8.57;6.22;;;;;;;22.08;27.09;97326.13;5073393;28;20397;-77
2022/04/23 00:03:46;;;;;;;8.07;5.97;;;;;;;21.16;27.87;97330.31;5070731;28;20025;-77
2022/04/23 00:06:12;;;;;;;9.02;6.32;;;;;;;20.54;28.81;97334.75;5071841;28;20383;-77
2022/04/23 00:08:39;;;;;;;6.88;5.70;;;;;;;20.75;28.82;97335.56;5069544;28;20029;-77
2022/04/23 00:11:05;;;;;;;9.13;6.45;;;;;;;22.36;26.81;97327.38;5074000;28;20035;-76
2022/04/23 00:13:31;;;;;;;7.80;5.60;;;;;;;22.07;26.70;97329.38;5073245;28;20540;-77
2022/04/23 00:15:57;;;;;;;8.18;6.35;;;;;;;23.01;25.58;97325.19;5073668;28;20044;-77
2022/04/23 00:18:23;;;;;;;8.52;6.38;;;;;;;22.63;25.81;97322.28;5073459;28;20058;-77
2022/04/23 00:20:49;;;;;;;7.22;5.97;;;;;;;21.55;27.26;97321.84;5071700;28;20517;-77
2022/04/23 00:23:15;;;;;;;7.65;5.63;;;;;;;22.99;25.46;97320.00;5070115;28;20021;-77
2022/04/23 00:25:44;;;;;;;9.10;6.53;;;;;;;23.62;24.63;97311.69;5072078;28;20051;-77
2022/04/23 00:28:10;;;;;;;7.38;5.82;;;;;;;22.25;26.46;97316.50;5077090;28;20844;-77
2022/04/23 00:30:36;;;;;;;8.57;5.85;;;;;;;22.96;25.37;97320.13;5071613;28;20046;-77
2022/04/23 00:33:03;;;;;;;9.65;6.15;;;;;;;22.33;26.07;97311.50;5074765;28;20059;-77
2022/04/23 00:35:29;;;;;;;9.27;6.60;;;;;;;21.16;27.79;97310.78;5072412;28;20487;-77
2022/04/23 00:37:56;;;;;;;10.13;6.88;;;;;;;22.64;26.00;97313.44;5071668;28;20527;-77
2022/04/23 00:40:24;;;;;;;8.80;6.60;;;;;;;22.33;26.15;97305.91;5071586;28;20379;-77
2022/04/23 00:42:53;;;;;;;9.38;6.40;;;;;;;22.47;26.02;97302.72;5068220;28;20036;-77
2022/04/23 00:45:21;;;;;;;10.05;7.25;;;;;;;22.47;26.19;97303.53;5070049;28;20622;-76
2022/04/23 00:47:47;;;;;;;12.63;8.40;;;;;;;22.95;25.37;97304.56;5068253;28;20035;-77
2022/04/23 00:50:14;;;;;;;9.50;6.95;;;;;;;23.49;24.58;97302.50;5067098;28;20028;-76
2022/04/23 00:52:40;;;;;;;12.40;8.30;;;;;;;21.71;27.05;97305.06;5067034;28;20024;-77
2022/04/23 00:55:08;;;;;;;9.73;6.85;;;;;;;23.26;25.02;97298.00;5071004;28;20036;-77
2022/04/23 00:57:35;;;;;;;10.38;7.50;;;;;;;23.72;24.31;97296.56;5075513;28;20051;-77
2022/04/23 01:00:06;;;;;;;13.27;8.80;;;;;;;21.97;26.55;97300.47;5075049;28;20121;-77
2022/04/23 01:02:32;;;;;;;;;;;;;;;21.98;26.68;97310.44;5076583;28;20065;-77
2022/04/23 01:04:58;;;;;;;12.00;7.80;;;;;;;21.83;27.10;97306.38;5074437;28;19943;-77
2022/04/23 01:07:25;;;;;;;11.60;8.27;;;;;;;22.12;26.48;97304.47;5069287;28;20024;-77
2022/04/23 01:09:52;;;;;;;10.75;8.38;;;;;;;22.12;26.69;97312.06;5072068;28;20043;-77
2022/04/23 01:12:19;;;;;;;12.43;8.02;;;;;;;20.63;28.64;97321.03;5068450;28;20058;-76
2022/04/23 01:15:02;;;;;;;12.63;8.10;;;;;;;20.88;28.55;97314.97;5075631;28;20024;-76
2022/04/23 01:17:28;;;;;;;15.20;9.57;;;;;;;19.62;30.07;97312.53;5074846;28;20067;-76
2022/04/23 01:19:54;;;;;;;14.38;9.38;;;;;;;19.41;30.80;97313.66;5071689;28;20024;-76
2022/04/23 01:22:26;;;;;;;13.10;9.32;;;;;;;21.29;28.12;97304.09;5075383;28;20040;-77
2022/04/23 01:24:55;;;;;;;12.77;8.63;;;;;;;20.74;28.30;97309.66;5075517;28;20040;-77
2022/04/23 01:27:29;;;;;;;14.73;9.23;;;;;;;21.18;27.55;97306.34;5073826;28;20044;-77
2022/04/23 01:29:56;;;;;;;13.57;9.40;;;;;;;21.21;27.67;97299.88;5069718;28;20051;-77
2022/04/23 01:32:23;;;;;;;13.90;9.45;;;;;;;20.16;29.26;97310.41;5069515;28;20123;-77
2022/04/23 01:34:49;;;;;;;15.15;9.80;;;;;;;20.21;29.50;97307.13;5079552;28;20451;-77
2022/04/23 01:37:19;;;;;;;14.30;9.32;;;;;;;19.89;29.80;97307.69;5068297;28;20029;-77
2022/04/23 01:39:49;;;;;;;13.15;9.20;;;;;;;19.32;30.95;97308.56;5070971;28;22241;-77
2022/04/23 01:42:19;;;;;;;13.90;9.82;;;;;;;19.96;29.95;97305.56;5075622;28;20028;-77
2022/04/23 01:44:50;;;;;;;12.07;8.75;;;;;;;20.49;28.81;97312.94;5075299;28;20105;-77
2022/04/23 01:47:17;;;;;;;15.65;10.20;;;;;;;21.04;28.18;97303.03;5071705;28;20079;-77
2022/04/23 01:49:44;;;;;;;14.82;10.32;;;;;;;21.04;27.98;97303.88;5064953;28;20571;-76
2022/04/23 01:52:10;;;;;;;12.82;8.65;;;;;;;19.99;29.02;97301.94;5071420;28;20047;-77
2022/04/23 01:54:37;;;;;;;16.75;9.88;;;;;;;18.36;31.61;97305.47;5073790;28;20434;-76
2022/04/23 01:57:04;;;;;;;13.00;10.10;;;;;;;18.49;31.65;97314.06;5075756;28;20044;-77
2022/04/23 01:59:30;;;;;;;15.38;9.23;;;;;;;18.81;31.15;97308.13;5069386;28;20036;-76
2022/04/23 02:01:58;;;;;;;15.80;10.02;;;;;;;20.47;28.61;97309.00;5068989;28;20551;-77
2022/04/23 02:04:25;;;;;;;14.32;9.63;;;;;;;19.25;29.92;97307.91;5073423;28;20032;-77
2022/04/23 02:06:52;;;;;;;13.63;9.00;;;;;;;19.58;29.90;97309.03;5073263;28;20044;-77
2022/04/23 02:09:18;;;;;;;13.85;8.55;;;;;;;19.05;30.29;97305.00;5076333;28;20020;-77
2022/04/23 02:11:45;;;;;;;11.82;8.82;;;;;;;18.16;31.85;97303.69;5071296;28;20436;-77
2022/04/23 02:14:11;;;;;;;13.65;9.40;;;;;;;18.38;31.37;97307.81;5071345;28;20041;-77
2022/04/23 02:16:39;;;;;;;15.85;9.63;;;;;;;18.25;31.89;97310.34;5073089;28;20063;-77
2022/04/23 02:19:05;;;;;;;12.98;8.93;;;;;;;18.96;30.52;97312.28;5073753;28;20029;-77
2022/04/23 02:21:31;;;;;;;14.23;9.13;;;;;;;19.13;30.44;97314.03;5073604;28;20375;-77
2022/04/23 02:23:57;;;;;;;12.48;8.35;;;;;;;18.45;31.60;97316.06;5072326;28;20065;-77
2022/04/23 02:26:23;;;;;;;14.43;9.63;;;;;;;18.57;30.55;97315.56;5072984;28;20506;-77
2022/04/23 02:28:52;;;;;;;11.00;7.97;;;;;;;19.07;29.98;97322.06;5069540;28;20048;-77
2022/04/23 02:31:19;;;;;;;11.70;8.02;;;;;;;20.35;28.10;97326.41;5069596;28;20429;-77
2022/04/23 02:33:45;;;;;;;11.68;8.27;;;;;;;19.21;29.51;97329.41;5067924;28;20033;-76
2022/04/23 02:36:12;;;;;;;10.40;7.20;;;;;;;19.50;28.86;97324.25;5069341;28;20032;-77
2022/04/23 02:38:39;;;;;;;10.35;7.22;;;;;;;19.25;29.40;97330.94;5072785;28;20044;-76
2022/04/23 02:41:06;;;;;;;10.65;7.32;;;;;;;20.87;27.14;97332.91;5075198;28;20024;-76
2022/04/23 02:43:35;;;;;;;11.00;7.47;;;;;;;20.74;27.26;97329.19;5069347;28;20035;-77
2022/04/23 02:46:02;;;;;;;13.05;8.23;;;;;;;20.80;27.06;97326.69;5077335;28;20043;-77
2022/04/23 02:48:28;;;;;;;8.85;6.85;;;;;;;20.96;26.53;97330.31;5076391;28;20029;-77
2022/04/23 02:50:54;;;;;;;10.77;6.55;;;;;;;21.61;25.91;97320.09;5075372;28;20040;-77
2022/04/23 02:53:21;;;;;;;9.88;7.15;;;;;;;20.85;26.85;97328.97;5076472;28;20036;-77
2022/04/23 02:55:47;;;;;;;10.88;7.45;;;;;;;21.01;26.63;97332.59;5070525;28;20071;-77
2022/04/23 02:58:13;;;;;;;9.90;6.93;;;;;;;20.42;27.11;97343.75;5076899;28;20028;-77
2022/04/23 03:00:41;;;;;;;11.15;7.20;;;;;;;19.94;27.95;97348.97;5071486;28;20451;-76
2022/04/23 03:03:08;;;;;;;10.45;6.90;;;;;;;21.35;25.94;97354.63;5074594;28;20028;-79
2022/04/23 03:05:35;;;;;;;9.38;6.68;;;;;;;21.43;25.86;97346.84;5073786;28;20044;-79
2022/04/23 03:08:02;;;;;;;8.88;6.00;;;;;;;21.22;26.20;97348.13;5073113;28;20040;-79
2022/04/23 03:10:30;;;;;;;10.52;7.00;;;;;;;21.51;25.93;97342.69;5069265;28;20401;-79
2022/04/23 03:12:57;;;;;;;9.32;6.85;;;;;;;22.74;24.14;97347.16;5074783;28;20029;-79
2022/04/23 03:15:26;;;;;;;8.27;5.38;;;;;;;23.27;23.38;97347.16;5081912;28;20028;-79
2022/04/23 03:18:04;;;;;;;9.60;5.95;;;;;;;23.49;22.62;97346.56;5074835;28;20082;-79
2022/04/23 03:20:30;;;;;;;10.63;6.80;;;;;;;23.90;22.17;97355.63;5079934;28;20028;-79
2022/04/23 03:22:56;;;;;;;7.70;6.03;;;;;;;23.84;22.23;97346.22;5068452;28;20028;-79
2022/04/23 03:25:22;;;;;;;7.38;5.00;;;;;;;23.38;22.77;97356.06;5075346;28;20036;-79
2022/04/23 03:27:48;;;;;;;7.63;5.00;;;;;;;22.78;23.36;97351.41;5075353;28;20046;-80
2022/04/23 03:30:14;;;;;;;6.93;4.80;;;;;;;21.10;25.30;97363.53;5076264;28;20371;-79
2022/04/23 03:32:42;;;;;;;8.02;5.78;;;;;;;21.90;24.82;97359.34;5077345;28;20032;-79
2022/04/23 03:35:08;;;;;;;7.95;5.45;;;;;;;22.59;23.67;97363.53;5081819;28;20646;-79
2022/04/23 03:37:38;;;;;;;6.15;4.50;;;;;;;23.47;22.48;97358.22;5071226;28;20028;-79
2022/04/23 03:40:06;;;;;;;6.55;4.55;;;;;;;24.34;21.64;97361.41;5076995;28;20066;-79
2022/04/23 03:42:32;;;;;;;7.10;4.40;;;;;;;25.16;20.68;97362.84;5075446;28;20045;-79
2022/04/23 03:44:58;;;;;;;6.80;4.72;;;;;;;25.50;20.06;97364.81;5073740;28;20024;-77
2022/04/23 03:47:24;;;;;;;6.85;4.90;;;;;;;25.38;20.13;97367.22;5077213;28;20496;-76
2022/04/23 03:49:50;;;;;;;7.35;4.72;;;;;;;25.04;20.38;97370.13;5076084;28;20171;-76
2022/04/23 03:52:16;;;;;;;6.30;4.30;;;;;;;24.88;20.59;97370.31;5081109;28;20526;-77
2022/04/23 03:54:42;;;;;;;6.47;4.07;;;;;;;24.89;20.66;97366.28;5073937;28;20063;-77
2022/04/23 03:57:08;;;;;;;5.65;4.32;;;;;;;25.07;20.55;97362.81;5078099;28;20033;-77
2022/04/23 03:59:37;;;;;;;6.95;5.18;;;;;;;25.20;20.20;97369.16;5075816;28;20036;-77
2022/04/23 04:02:06;;;;;;;6.15;4.30;;;;;;;24.99;20.26;97358.72;5073359;28;20447;-77
2022/04/23 04:04:33;;;;;;;7.45;4.90;;;;;;;24.59;20.81;97361.31;5074229;28;20671;-76
2022/04/23 04:07:00;;;;;;;6.18;4.43;;;;;;;24.18;21.26;97359.53;5070505;28;20040;-76
2022/04/23 04:09:27;;;;;;;4.65;4.13;;;;;;;24.07;21.63;97366.72;5075576;28;20028;-77
2022/04/23 04:12:03;;;;;;;6.03;4.20;;;;;;;23.99;21.50;97364.13;5079541;28;20033;-77
2022/04/23 04:14:31;;;;;;;5.93;3.55;;;;;;;24.02;21.65;97368.06;5077459;28;20490;-77
2022/04/23 04:17:02;;;;;;;5.97;4.05;;;;;;;24.03;21.30;97367.63;5075869;28;20032;-77
2022/04/23 04:19:30;;;;;;;5.75;3.75;;;;;;;24.41;21.39;97358.38;5078919;28;20024;-77
2022/04/23 04:21:58;;;;;;;4.80;3.47;;;;;;;25.16;20.42;97369.28;5075883;28;20509;-77
2022/04/23 04:24:26;;;;;;;5.43;3.58;;;;;;;25.77;19.85;97374.16;5078246;28;20432;-77
2022/04/23 04:26:53;;;;;;;5.03;3.90;;;;;;;26.29;18.77;97369.66;5075385;28;20034;-77
2022/04/23 04:29:20;;;;;;;6.05;3.85;;;;;;;26.09;19.12;97373.63;5076682;28;20527;-78
2022/04/23 04:31:49;;;;;;;4.57;3.72;;;;;;;25.38;20.15;97380.50;5075174;28;21629;-78
2022/04/23 04:34:29;;;;;;;3.97;3.00;;;;;;;25.29;20.31;97380.44;5077839;28;20033;-78
2022/04/23 04:37:12;;;;;;;5.78;3.70;;;;;;;25.97;19.81;97373.78;5072635;28;20086;-79
2022/04/23 04:39:40;;;;;;;3.83;3.15;;;;;;;26.57;19.06;97380.50;5074382;28;20426;-79
2022/04/23 04:42:07;;;;;;;6.80;4.72;;;;;;;26.85;18.55;97374.91;5076349;28;20029;-79
2022/04/23 04:44:34;;;;;;;6.35;4.40;;;;;;;26.85;18.62;97372.88;5079451;28;20036;-79
2022/04/23 04:47:00;;;;;;;4.95;3.55;;;;;;;26.21;19.27;97383.22;5071863;28;20557;-79
2022/04/23 04:49:29;;;;;;;9.00;6.15;;;;;;;24.56;21.02;97379.06;5072417;28;20040;-79
2022/04/23 04:51:55;;;;;;;7.43;5.43;;;;;;;24.30;21.93;97380.38;5073720;28;20042;-79
2022/04/23 04:54:24;;;;;;;9.57;6.97;;;;;;;23.06;23.00;97373.00;5074985;28;20039;-79
2022/04/23 04:56:51;;;;;;;7.00;5.32;;;;;;;23.68;22.63;97382.00;5076117;28;20032;-79
2022/04/23 04:59:20;;;;;;;6.97;5.70;;;;;;;23.56;22.73;97379.97;5071638;28;20059;-79
2022/04/23 05:01:47;;;;;;;6.65;5.30;;;;;;;24.22;21.97;97379.84;5064456;28;20039;-79
2022/04/23 05:04:13;;;;;;;7.95;6.38;;;;;;;23.52;22.54;97390.50;5074687;28;20568;-79
2022/04/23 05:06:39;;;;;;;9.60;6.18;;;;;;;23.89;22.18;97382.09;5073585;28;20036;-79
2022/04/23 05:09:05;;;;;;;9.23;6.45;;;;;;;23.84;22.56;97391.06;5071071;28;20420;-79
2022/04/23 05:11:31;;;;;;;6.68;5.40;;;;;;;24.33;22.38;97385.88;5077502;28;20038;-79
2022/04/23 05:13:57;;;;;;;9.98;6.43;;;;;;;24.02;22.25;97391.28;5072377;28;20516;-79
2022/04/23 05:16:23;;;;;;;6.88;5.05;;;;;;;24.34;22.23;97397.88;5086641;28;20421;-79
2022/04/23 05:18:50;;;;;;;5.78;4.68;;;;;;;21.99;24.60;97398.63;5080948;28;20055;-79
2022/04/23 05:21:16;;;;;;;7.45;5.25;;;;;;;21.65;25.24;97403.81;5079498;28;20119;-78
2022/04/23 05:23:42;;;;;;;7.53;5.75;;;;;;;21.18;25.84;97404.06;5073758;28;20099;-78
2022/04/23 05:26:09;;;;;;;8.18;5.90;;;;;;;22.57;24.28;97405.94;5075964;28;20025;-79
2022/04/23 05:28:35;;;;;;;8.40;5.60;;;;;;;23.71;22.78;97406.31;5085730;28;20115;-79
2022/04/23 05:31:02;;;;;;;7.05;5.15;;;;;;;24.28;22.05;97400.47;5079074;28;20047;-78
2022/04/23 05:33:28;;;;;;;6.43;5.25;;;;;;;25.52;21.08;97404.50;5074946;28;20040;-79
2022/04/23 05:35:54;;;;;;;7.57;5.13;;;;;;;26.03;20.49;97402.84;5077099;28;20104;-79
2022/04/23 05:38:21;;;;;;;6.03;4.60;;;;;;;26.40;19.63;97387.66;5078267;28;20082;-78
2022/04/23 05:40:48;;;;;;;7.20;4.85;;;;;;;26.62;19.40;97393.97;5076041;28;20020;-79
2022/04/23 05:43:14;;;;;;;8.45;5.95;;;;;;;25.54;20.96;97404.81;5072955;28;20525;-79
2022/04/23 05:45:41;;;;;;;7.32;4.85;;;;;;;25.07;21.00;97410.56;5073263;28;20047;-79
2022/04/23 05:48:07;;;;;;;8.30;6.32;;;;;;;;;;5071713;28;20111;-79
2022/04/23 05:50:33;;;;;;;6.47;5.18;;;;;;;23.59;23.16;97413.50;5069869;28;20092;-79
2022/04/23 05:52:59;;;;;;;5.80;4.78;;;;;;;24.71;21.52;97405.41;5096278;28;20101;-79
2022/04/23 05:55:25;;;;;;;7.80;6.00;;;;;;;25.95;20.27;97407.22;5072005;28;20040;-79
2022/04/23 05:57:51;;;;;;;5.43;4.55;;;;;;;26.84;19.32;97395.88;5082703;28;20062;-79
2022/04/23 06:00:18;;;;;;;6.05;4.47;;;;;;;27.53;18.71;97395.97;5078358;28;20024;-79
2022/04/23 06:02:44;;;;;;;4.93;3.85;;;;;;;28.04;18.01;97394.72;5087557;28;20081;-79
2022/04/23 06:05:10;;;;;;;6.85;4.40;;;;;;;27.69;18.43;97389.97;5073266;28;20032;-79
2022/04/23 06:07:36;;;;;;;7.45;5.38;;;;;;;28.12;18.18;97391.56;5068379;28;20047;-79
2022/04/23 06:10:03;;;;;;;7.20;5.13;;;;;;;28.46;17.81;97394.66;5073129;28;20036;-79
2022/04/23 06:12:29;;;;;;;7.15;4.50;;;;;;;28.64;17.26;97394.53;5075380;28;20445;-79
2022/04/23 06:14:56;;;;;;;6.88;4.75;;;;;;;28.85;17.55;97394.69;5078117;28;20440;-79
2022/04/23 06:17:26;;;;;;;4.88;4.00;;;;;;;29.21;17.63;97400.09;5077986;28;20064;-79
2022/04/23 06:19:52;;;;;;;5.20;4.10;;;;;;;29.54;16.86;97403.53;5070391;28;20036;-79
2022/04/23 06:22:19;;;;;;;5.22;4.03;;;;;;;29.21;17.08;97409.34;5069879;28;20024;-79
2022/04/23 06:24:46;;;;;;;5.55;4.20;;;;;;;28.92;17.75;97406.41;5069412;28;20039;-79
2022/04/23 06:27:12;;;;;;;5.50;3.72;;;;;;;28.92;17.98;97406.41;5068643;28;20077;-79
2022/04/23 06:29:39;;;;;;;5.18;3.80;;;;;;;29.32;17.53;97400.28;5077356;28;21256;-79
2022/04/23 06:32:06;;;;;;;7.00;3.65;;;;;;;29.57;17.29;97399.72;5069269;28;20039;-79
2022/04/23 06:34:34;;;;;;;5.63;4.28;;;;;;;28.79;17.60;97391.78;5070845;28;20531;-79
2022/04/23 06:37:00;;;;;;;5.13;4.32;;;;;;;27.99;18.61;97395.38;5072323;28;20032;-79
2022/04/23 06:39:26;;;;;;;5.10;3.85;;;;;;;28.16;18.30;97403.44;5069294;28;20060;-79
2022/04/23 06:41:52;;;;;;;6.63;4.70;;;;;;;27.76;18.09;97398.09;5070175;28;20036;-79
2022/04/23 06:44:18;;;;;;;5.25;3.83;;;;;;;28.02;18.74;97396.47;5069750;28;20028;-79
2022/04/23 06:46:44;;;;;;;7.10;3.33;;;;;;;28.80;18.46;97396.16;5076471;28;20036;-79
2022/04/23 06:49:11;;;;;;;5.30;3.70;;;;;;;28.73;17.86;97402.16;5069695;28;20494;-79
2022/04/23 06:51:37;;;;;;;5.40;3.80;;;;;;;28.68;17.87;97392.31;5071667;28;20039;-79
2022/04/23 06:54:04;;;;;;;4.90;3.80;;;;;;;28.83;17.82;97400.06;5071761;28;20047;-79
2022/04/23 06:56:31;;;;;;;5.57;5.00;;;;;;;29.22;18.17;97402.41;5070529;28;20043;-79
2022/04/23 06:58:58;;;;;;;4.00;3.15;;;;;;;29.73;17.76;97401.28;5068964;28;20032;-79
2022/04/23 07:01:24;;;;;;;6.15;4.32;;;;;;;30.15;17.21;97398.13;5078495;28;20123;-79
2022/04/23 07:03:50;;;;;;;4.70;3.78;;;;;;;30.18;17.32;97397.91;5069653;28;20029;-79
2022/04/23 07:06:16;;;;;;;3.95;3.55;;;;;;;30.39;16.80;97404.41;5075673;28;20565;-79
2022/04/23 07:08:45;;;;;;;5.35;4.10;;;;;;;30.58;16.99;97398.00;5078315;28;20055;-79
2022/04/23 07:11:12;;;;;;;4.25;2.95;;;;;;;29.90;16.98;97403.13;5072521;28;20047;-79
2022/04/23 07:13:38;;;;;;;3.83;3.10;;;;;;;30.03;16.53;97400.78;5079756;28;20068;-80
2022/04/23 07:16:05;;;;;;;3.50;2.63;;;;;;;29.88;16.18;97408.50;5074434;28;20036;-80
2022/04/23 07:18:32;;;;;;;3.50;2.35;;;;;;;29.62;16.27;97409.56;5077844;28;20127;-79
2022/04/23 07:20:58;;;;;;;2.92;2.33;;;;;;;29.49;17.02;97400.59;5068603;28;20564;-80
2022/04/23 07:26:10;;;;;;;4.90;3.47;;;;;;;30.43;16.82;97397.28;5076248;28;20048;-79
2022/04/23 07:28:37;;;;;;;4.03;3.15;;;;;;;30.87;16.84;97390.63;5070449;28;20117;-80
2022/04/23 07:31:05;;;;;;;3.28;2.47;;;;;;;30.97;16.47;97392.09;5075365;28;20088;-80
2022/04/23 07:39:00;;;;;;;4.25;3.17;;;;;;;29.79;15.80;97388.03;5075152;28;20103;-80
2022/04/23 07:41:27;;;;;;;2.35;1.83;;;;;;;28.28;16.51;97394.75;5080655;28;20032;-79
2022/04/23 07:43:56;;;;;;;2.25;2.05;;;;;;;27.36;18.12;97392.69;5075935;28;20029;-79
2022/04/23 07:46:22;;;;;;;2.72;2.20;;;;;;;25.84;19.58;97395.59;5087038;28;20032;-79
2022/04/23 07:48:49;;;;;;;3.90;2.70;;;;;;;24.97;20.45;97397.72;5075244;28;20036;-79
2022/04/23 07:51:15;;;;;;;2.83;2.20;;;;;;;24.70;20.74;97410.25;5075524;28;20082;-79
2022/04/23 07:53:41;;;;;;;2.65;2.20;;;;;;;25.30;19.99;97408.06;5075658;28;20504;-80
2022/04/23 07:56:07;;;;;;;3.53;2.83;;;;;;;26.87;19.81;97404.16;5073694;28;20086;-80
2022/04/23 07:58:33;;;;;;;2.05;1.80;;;;;;;27.90;17.59;97398.19;5072234;28;20958;-81
2022/04/23 08:00:59;;;;;;;1.75;1.63;;;;;;;29.09;17.92;97398.28;5077876;28;20557;-80
2022/04/23 08:03:25;;;;;;;2.55;1.85;;;;;;;30.15;16.98;97393.25;5073304;28;20115;-79
2022/04/23 08:05:51;;;;;;;2.30;2.10;;;;;;;29.54;16.66;97389.38;5073446;28;20126;-80
2022/04/23 08:08:17;;;;;;;3.03;2.45;;;;;;;29.37;16.55;97403.22;5071336;28;20130;-80
2022/04/23 08:10:44;;;;;;;2.92;2.22;;;;;;;28.45;17.12;97393.06;5076560;28;20093;-80
2022/04/23 08:13:11;;;;;;;2.05;1.88;;;;;;;28.07;16.43;97398.63;5076514;28;20072;-80
2022/04/23 08:15:37;;;;;;;4.90;2.25;;;;;;;26.13;18.77;97389.63;5084011;28;20091;-79
2022/04/23 08:18:03;;;;;;;3.10;2.22;;;;;;;26.73;18.66;97394.28;5084967;28;20130;-81
2022/04/23 08:20:32;;;;;;;3.10;2.78;;;;;;;27.10;18.28;97386.63;5080384;28;20089;-81
2022/04/23 08:22:58;;;;;;;12.60;5.47;;;;;;;28.63;18.18;97376.06;5072078;28;20035;-79
2022/04/23 08:25:24;;;;;;;2.40;2.15;;;;;;;27.65;17.79;97387.34;5082507;28;20428;-80
2022/04/23 08:27:52;;;;;;;2.65;2.40;;;;;;;27.28;18.87;97385.81;5074415;28;20546;-79
2022/04/23 08:30:34;;;;;;;3.85;3.05;;;;;;;26.99;17.79;97377.88;5074471;28;20028;-80
2022/04/23 08:33:05;;;;;;;2.55;2.20;;;;;;;28.64;16.91;97380.41;5084819;28;20048;-80
2022/04/23 08:35:32;;;;;;;4.28;2.92;;;;;;;29.66;16.56;97374.16;5074973;28;20086;-80
2022/04/23 08:37:59;;;;;;;3.17;2.45;;;;;;;30.06;15.19;97374.31;5073136;28;20094;-79
2022/04/23 08:40:29;;;;;;;2.60;2.20;;;;;;;30.02;14.87;97376.56;5077721;28;20034;-79
2022/04/23 08:42:57;;;;;;;3.60;2.13;;;;;;;30.28;15.29;97367.41;5075133;28;20031;-80
2022/04/23 08:45:24;;;;;;;15.15;6.93;;;;;;;30.68;14.91;97368.25;5072244;28;20478;-79
2022/04/23 08:47:51;;;;;;;6.05;3.22;;;;;;;31.06;14.99;97367.19;5074411;28;20036;-79
2022/04/23 08:50:20;;;;;;;2.88;1.80;;;;;;;29.21;15.77;97372.59;5077135;28;20119;-80
2022/04/23 08:52:56;;;;;;;1.95;1.50;;;;;;;27.36;17.29;97370.91;5076113;28;20042;-80
2022/04/23 08:55:25;;;;;;;2.45;2.08;;;;;;;26.27;17.87;97370.13;5071274;28;20101;-79
2022/04/23 08:57:51;;;;;;;1.30;1.20;;;;;;;27.46;17.16;97363.25;5077799;28;20036;-80
2022/04/23 09:00:17;;;;;;;2.53;1.20;;;;;;;28.70;16.60;97364.38;5080883;28;20405;-79
2022/04/23 09:02:44;;;;;;;1.95;1.30;;;;;;;29.12;15.20;97364.19;5076992;28;20073;-80
2022/04/23 09:05:13;;;;;;;1.40;1.10;;;;;;;29.73;15.81;97358.84;5078764;28;20448;-81
2022/04/23 09:07:50;;;;;;;1.40;1.30;;;;;;;28.30;16.57;97351.91;5073935;28;20389;-81
2022/04/23 09:10:17;;;;;;;2.42;1.35;;;;;;;29.24;16.43;97360.28;5075944;28;20474;-82
2022/04/23 09:12:59;;;;;;;2.60;1.33;;;;;;;29.81;15.63;97354.34;5080726;28;20046;-81
2022/04/23 09:24:09;;;;;;;1.48;1.08;;;;;;;29.04;15.54;97362.19;5077061;28;20563;-80
2022/04/23 09:26:35;;;;;;;1.73;1.60;;;;;;;27.73;17.67;97365.19;5067279;28;20029;-80
2022/04/23 09:29:14;;;;;;;4.57;2.45;;;;;;;28.03;16.69;97356.47;5074746;28;20506;-80
2022/04/23 09:31:42;;;;;;;2.35;1.83;;;;;;;29.15;16.37;97351.88;5071119;28;20124;-79
2022/04/23 09:34:21;;;;;;;1.75;1.65;;;;;;;29.98;14.90;97347.69;5071161;28;20037;-79
2022/04/23 09:36:57;;;;;;;1.80;1.42;;;;;;;30.53;15.11;97344.88;5071639;28;20047;-79
2022/04/23 09:39:38;;;;;;;7.88;3.85;;;;;;;31.17;15.03;97344.63;5076698;28;20048;-79
2022/04/23 09:42:15;;;;;;;8.27;4.20;;;;;;;31.72;14.99;97344.38;5071051;28;20047;-79
2022/04/23 09:44:42;;;;;;;2.17;1.23;;;;;;;32.19;14.33;97337.25;5075157;28;20036;-80
2022/04/23 09:47:08;;;;;;;1.50;1.10;;;;;;;31.98;14.34;97333.75;5080620;28;20096;-80
2022/04/23 09:49:35;;;;;;;1.75;1.30;;;;;;;31.90;14.77;97331.88;5071146;28;20585;-79
2022/04/23 09:52:09;;;;;;;1.40;1.00;;;;;;;32.36;14.86;97334.50;5069626;28;20037;-80
2022/04/23 09:54:37;;;;;;;2.28;1.00;;;;;;;32.03;13.67;97335.84;5079064;28;20081;-80
2022/04/23 09:57:04;;;;;;;1.77;1.30;;;;;;;30.73;15.00;97339.22;5068224;28;20039;-80
2022/04/23 09:59:31;;;;;;;1.30;1.20;;;;;;;28.99;16.97;97343.06;5071463;28;20380;-80
2022/04/23 10:01:58;;;;;;;1.70;1.20;;;;;;;27.16;18.31;97350.13;5071229;28;23788;-79
2022/04/23 10:04:27;;;;;;;1.67;1.58;;;;;;;27.95;17.58;97343.94;5065291;28;20560;-79
2022/04/23 10:06:57;;;;;;;1.92;1.55;;;;;;;29.36;16.21;97347.13;5070196;28;20531;-82
2022/04/23 10:09:27;;;;;;;1.52;1.00;;;;;;;30.55;16.14;97345.16;5065655;28;20630;-80
2022/04/23 10:12:04;;;;;;;1.50;1.05;;;;;;;31.60;14.86;97339.88;5072694;28;20032;-79
2022/04/23 10:14:38;;;;;;;2.05;1.20;;;;;;;31.66;14.01;97337.88;5072533;28;20097;-79
2022/04/23 10:17:07;;;;;;;0.80;0.80;;;;;;;31.11;15.32;97349.44;5069904;28;20042;-80
2022/04/23 10:19:35;;;;;;;1.30;1.20;;;;;;;30.05;15.53;97346.50;5072842;28;20024;-80
2022/04/23 10:22:31;;;;;;;1.20;1.00;;;;;;;30.09;15.21;97344.22;5072480;28;20075;-80
2022/04/23 10:25:22;;;;;;;0.80;0.80;;;;;;;31.52;14.54;97335.16;5035344;28;20045;-80
2022/04/23 10:27:50;;;;;;;1.30;1.13;;;;;;;29.47;16.45;97338.06;5070884;28;20037;-80
2022/04/23 10:30:16;;;;;;;1.10;1.00;;;;;;;29.65;16.09;97343.50;5075337;28;20028;-79
2022/04/23 10:32:43;;;;;;;1.40;0.80;;;;;;;28.96;17.17;97333.56;5071967;28;20036;-79
2022/04/23 10:35:18;;;;;;;1.20;1.10;;;;;;;28.55;16.39;97343.75;5075053;28;20033;-81
2022/04/23 10:37:49;;;;;;;0.82;0.82;;;;;;;26.62;18.47;97348.91;5068566;28;20129;-80
2022/04/23 10:40:19;;;;;;;0.77;0.77;;;;;;;27.96;18.04;97339.06;5079594;28;20028;-81
2022/04/23 10:43:03;;;;;;;1.27;1.17;;;;;;;27.40;17.39;97346.19;5074104;28;20086;-81
2022/04/23 10:45:33;;;;;;;0.80;0.80;;;;;;;29.73;15.68;97347.50;5072852;28;20282;-79
2022/04/23 10:48:33;;;;;;;0.73;0.73;;;;;;;30.17;14.86;97348.22;5079801;28;20040;-81
2022/04/23 10:51:11;;;;;;;1.02;0.90;;;;;;;30.22;15.76;97347.53;5039072;28;20123;-80
2022/04/23 10:53:37;;;;;;;0.90;0.90;;;;;;;29.30;15.87;97343.44;5076479;28;20036;-79
2022/04/23 10:56:09;;;;;;;1.08;1.02;;;;;;;30.87;14.47;97346.06;5074865;28;20162;-80
2022/04/23 10:58:37;;;;;;;0.73;0.73;;;;;;;31.21;14.64;97331.00;5077285;28;20397;-79
2022/04/23 11:01:25;;;;;;;0.60;0.60;;;;;;;31.76;14.91;97330.75;5078305;28;20119;-79
2022/04/23 11:04:11;;;;;;;0.88;0.88;;;;;;;32.35;14.55;97338.63;5075353;28;20082;-79
2022/04/23 11:12:22;;;;;;;;;;;;;;;27.64;17.51;97337.03;5073939;28;20114;-80
2022/04/23 11:14:52;;;;;;;1.83;1.63;;;;;;;26.64;19.09;97329.50;5073833;28;19923;-79
2022/04/23 11:17:45;;;;;;;0.90;0.90;;;;;;;28.72;17.65;97325.13;5078923;28;20115;-80
2022/04/23 11:20:12;;;;;;;0.82;0.82;;;;;;;30.54;15.85;97326.59;5073205;28;20123;-80
2022/04/23 11:22:38;;;;;;;1.00;0.90;;;;;;;31.23;14.80;97327.63;5079665;28;20023;-80
2022/04/23 11:25:05;;;;;;;0.88;0.70;;;;;;;31.69;14.54;97327.56;5076778;28;20032;-81
2022/04/23 11:27:36;;;;;;;0.75;0.75;;;;;;;32.21;14.06;97322.53;5079001;28;20032;-81
2022/04/23 11:30:05;;;;;;;1.05;1.05;;;;;;;32.99;14.66;97323.66;5073319;28;20857;-80
2022/04/23 11:32:34;;;;;;;1.25;0.90;;;;;;;32.99;13.33;97320.81;5073911;28;20443;-81
2022/04/23 11:35:00;;;;;;;0.70;0.70;;;;;;;33.15;13.22;97320.88;5075376;28;20047;-80
2022/04/23 11:37:34;;;;;;;0.63;0.63;;;;;;;32.95;13.22;97318.22;5076741;28;20036;-80
2022/04/23 11:40:18;;;;;;;0.90;0.88;;;;;;;33.11;13.74;97316.75;5068741;28;20115;-80
2022/04/23 11:42:47;;;;;;;2.45;0.75;;;;;;;32.67;13.39;97318.13;5072140;28;20036;-80
2022/04/23 11:45:15;;;;;;;0.52;0.52;;;;;;;32.89;13.79;97320.28;5078678;28;20485;-81
2022/04/23 11:47:41;;;;;;;0.90;0.80;;;;;;;33.24;14.11;97320.63;5072299;28;20036;-81
2022/04/23 11:50:18;;;;;;;1.85;0.60;;;;;;;33.64;13.94;97307.22;5070451;28;20138;-80
2022/04/23 11:52:55;;;;;;;0.63;0.63;;;;;;;33.91;13.09;97312.91;5074230;28;20394;-80
2022/04/23 11:55:23;;;;;;;0.63;0.60;;;;;;;34.21;12.98;97313.16;5070969;28;20508;-80
2022/04/23 11:58:01;;;;;;;0.65;0.65;;;;;;;33.88;13.18;97316.03;5073307;28;20397;-80
2022/04/23 12:00:31;;;;;;;0.85;0.85;;;;;;;33.83;12.96;97317.59;5072915;28;20035;-80
2022/04/23 12:02:58;;;;;;;;;;;;;;;34.04;12.75;97316.03;5077944;28;20045;-80